KTAZ

Taylorville Municipal Airport

Taylorville, Illinois, USA
METAR KTAZ 190455Z AUTO 00000KT 10SM CLR 21/20 A2993 RMK AO2 T02100198
Observed Flight Rules
Sep-19 @ 04:55 UTC (18 minutes ago) Visual Flight Rules
Visibility Clouds
10 miles
  • Clear skies
Temperatures Readings
Current 21°C / 70°F
Dewpoint 20°C / 68°F
Humidity 94%
Altimeter 29.93" Hg
Pressure 1014 hPa
Elevation 190
METAR KTAZ 190455Z AUTO 00000KT 10SM CLR 21/20 A2993 RMK AO2 T02100198
Observed Flight Rules
Sep-19 @ 04:55 UTC
(18 minutes ago)
VFR
Clouds
  • Clear skies
Temperature Dewpoint
21°C / 70°F 20°C / 68°F
Humidity Altimeter Pressure
94% 29.93" Hg 1014 hPa